Terminal Aerodrome Forecast
Issued by NWS Bismarck, ND

Home | Current Version | Previous Version | Graphics & Text | Print | Product List | Glossary On
Versions: 1 2 3 4 5 6 7 8 9 10 11 12 13 14
592
FTUS43 KBIS 161130 AAA
TAFISN
TAF AMD
KISN 161130Z 1612/1712 12013G21KT P6SM BKN150
     FM161900 16012KT P6SM BKN250
     FM162200 19009KT P6SM BKN250
     FM170100 25007KT P6SM BKN200=

USA.gov is the U.S. government's official web portal to all federal, state and local government web resources and services.